createdAt,value
2022-11-21T00:01:21.186Z,16.80
2022-11-21T00:03:48.859Z,14.15
2022-11-21T00:06:17.805Z,15.13
2022-11-21T00:08:46.175Z,15.30
2022-11-21T00:11:14.152Z,15.23
2022-11-21T00:13:42.520Z,15.43
2022-11-21T00:16:12.229Z,15.65
2022-11-21T00:18:40.264Z,15.77
2022-11-21T00:21:09.184Z,15.70
2022-11-21T00:23:38.129Z,16.88
2022-11-21T00:26:07.054Z,16.38
2022-11-21T00:28:35.048Z,15.95
2022-11-21T00:31:02.858Z,16.60
2022-11-21T00:33:30.418Z,16.52
2022-11-21T00:35:58.047Z,16.40
2022-11-21T00:38:25.715Z,16.15
2022-11-21T00:40:54.553Z,16.10
2022-11-21T00:43:22.121Z,15.15
2022-11-21T00:45:49.640Z,16.30
2022-11-21T00:48:17.244Z,16.02
2022-11-21T00:50:44.778Z,15.88
2022-11-21T00:53:12.364Z,14.38
2022-11-21T00:55:39.873Z,15.82
2022-11-21T00:58:08.791Z,15.32
2022-11-21T01:00:36.412Z,14.30
2022-11-21T01:03:04.305Z,13.57
2022-11-21T01:05:32.945Z,15.98
2022-11-21T01:08:00.522Z,14.35
2022-11-21T01:10:28.071Z,14.07
2022-11-21T01:12:55.658Z,13.70
2022-11-21T01:15:24.631Z,14.40
2022-11-21T01:17:52.352Z,14.05
2022-11-21T01:20:19.937Z,12.23
2022-11-21T01:22:47.483Z,13.68
2022-11-21T01:25:15.130Z,12.73
2022-11-21T01:27:42.974Z,13.20
2022-11-21T01:30:11.870Z,13.52
2022-11-21T01:32:40.775Z,13.95
2022-11-21T01:35:09.318Z,14.70
2022-11-21T01:37:36.887Z,14.90
2022-11-21T01:40:05.076Z,15.57
2022-11-21T01:42:45.591Z,15.20
2022-11-21T01:45:46.477Z,13.77
2022-11-21T01:48:15.550Z,14.25
2022-11-21T01:50:43.493Z,15.88
2022-11-21T01:53:11.550Z,14.88
2022-11-21T01:55:39.230Z,15.55
2022-11-21T01:58:06.841Z,15.52
2022-11-21T02:00:38.532Z,15.75
2022-11-21T02:03:10.423Z,15.88
2022-11-21T02:05:40.808Z,14.75
2022-11-21T02:08:11.753Z,14.63
2022-11-21T02:10:43.406Z,15.80
2022-11-21T02:13:11.360Z,15.73
2022-11-21T02:15:39.129Z,15.65
2022-11-21T02:18:09.966Z,16.70
2022-11-21T02:20:40.938Z,15.57
2022-11-21T02:23:14.649Z,16.08
2022-11-21T02:25:44.324Z,15.55
2022-11-21T02:28:15.465Z,15.48
2022-11-21T02:30:44.557Z,15.10
2022-11-21T02:33:13.381Z,15.40
2022-11-21T02:35:41.473Z,14.68
2022-11-21T02:38:17.813Z,15.15
2022-11-21T02:40:52.418Z,15.00
2022-11-21T02:43:25.092Z,15.13
2022-11-21T02:45:52.761Z,14.98
2022-11-21T02:48:20.524Z,14.45
2022-11-21T02:50:48.649Z,14.52
2022-11-21T02:53:18.539Z,14.63
2022-11-21T02:55:47.654Z,13.40
2022-11-21T02:58:15.275Z,12.52
2022-11-21T03:00:43.583Z,13.65
2022-11-21T03:03:11.291Z,11.18
2022-11-21T03:05:40.298Z,12.52
2022-11-21T03:08:08.088Z,12.02
2022-11-21T03:10:35.739Z,12.55
2022-11-21T03:13:04.977Z,12.50
2022-11-21T03:15:34.901Z,11.65
2022-11-21T03:18:03.581Z,12.07
2022-11-21T03:20:31.664Z,12.77
2022-11-21T03:22:59.591Z,12.63
2022-11-21T03:25:27.432Z,11.93
2022-11-21T03:27:55.546Z,12.73
2022-11-21T03:30:26.294Z,14.13
2022-11-21T03:32:56.409Z,13.68
2022-11-21T03:35:24.297Z,13.77
2022-11-21T03:37:51.851Z,12.93
2022-11-21T03:40:19.506Z,12.85
2022-11-21T03:42:47.090Z,12.98
2022-11-21T03:45:14.728Z,13.75
2022-11-21T03:47:43.592Z,13.95
2022-11-21T03:50:15.131Z,14.68
2022-11-21T03:52:42.779Z,13.90
2022-11-21T03:55:10.667Z,13.35
2022-11-21T03:57:38.240Z,12.65
2022-11-21T04:00:06.526Z,12.80
2022-11-21T04:02:34.240Z,13.35
2022-11-21T04:05:03.324Z,13.38
2022-11-21T04:07:31.082Z,14.18
2022-11-21T04:09:58.772Z,14.13
2022-11-21T04:12:26.370Z,13.18
2022-11-21T04:14:53.952Z,13.70
2022-11-21T04:17:21.699Z,12.10
2022-11-21T04:19:49.312Z,13.10
2022-11-21T04:22:18.209Z,12.10
2022-11-21T04:24:45.795Z,14.00
2022-11-21T04:27:13.642Z,13.35
2022-11-21T04:29:41.286Z,13.65
2022-11-21T04:32:09.316Z,13.32
2022-11-21T04:34:38.075Z,13.02
2022-11-21T04:37:11.278Z,12.77
2022-11-21T04:39:40.710Z,14.63
2022-11-21T04:42:08.343Z,13.68
2022-11-21T04:44:35.999Z,13.18
2022-11-21T04:47:05.568Z,14.05
2022-11-21T04:49:33.481Z,11.90
2022-11-21T04:52:01.251Z,13.38
2022-11-21T04:54:29.128Z,13.60
2022-11-21T04:56:58.349Z,14.55
2022-11-21T04:59:25.927Z,13.75
2022-11-21T05:01:53.446Z,14.45
2022-11-21T05:04:21.049Z,13.98
2022-11-21T05:06:48.612Z,14.93
2022-11-21T05:09:16.168Z,15.90
2022-11-21T05:12:01.296Z,14.82
2022-11-21T05:14:30.381Z,13.18
2022-11-21T05:16:58.114Z,12.73
2022-11-21T05:19:25.892Z,14.23
2022-11-21T05:21:53.795Z,14.75
2022-11-21T05:24:21.354Z,12.93
2022-11-21T05:26:48.937Z,13.57
2022-11-21T05:29:16.518Z,13.98
2022-11-21T05:31:45.516Z,12.95
2022-11-21T05:34:13.272Z,14.63
2022-11-21T05:36:40.866Z,14.20
2022-11-21T05:39:08.426Z,13.30
2022-11-21T05:41:36.871Z,14.38
2022-11-21T05:44:03.581Z,14.15
2022-11-21T05:46:31.183Z,14.20
2022-11-21T05:49:00.060Z,13.88
2022-11-21T05:51:28.003Z,12.95
2022-11-21T05:53:55.657Z,14.00
2022-11-21T05:56:23.292Z,13.80
2022-11-21T05:58:50.969Z,14.93
2022-11-21T06:01:39.008Z,14.93
2022-11-21T06:04:07.140Z,16.02
2022-11-21T06:06:34.670Z,15.18
2022-11-21T06:09:02.481Z,14.27
2022-11-21T06:11:30.044Z,15.68
2022-11-21T06:13:57.741Z,14.35
2022-11-21T06:16:25.436Z,13.80
2022-11-21T06:18:58.131Z,14.77
2022-11-21T06:21:29.629Z,14.05
2022-11-21T06:23:58.931Z,14.13
2022-11-21T06:26:28.552Z,14.52
2022-11-21T06:28:56.635Z,13.15
2022-11-21T06:31:26.025Z,13.23
2022-11-21T06:33:54.771Z,12.43
2022-11-21T06:36:22.477Z,13.23
2022-11-21T06:38:51.415Z,13.27
2022-11-21T06:41:20.419Z,14.80
2022-11-21T06:43:48.309Z,14.10
2022-11-21T06:46:16.665Z,14.30
2022-11-21T06:48:44.891Z,14.93
2022-11-21T06:51:16.502Z,13.70
2022-11-21T06:53:44.340Z,13.15
2022-11-21T06:56:13.321Z,13.88
2022-11-21T06:58:40.915Z,12.63
2022-11-21T07:01:10.443Z,13.93
2022-11-21T07:03:38.299Z,12.93
2022-11-21T07:06:07.003Z,14.05
2022-11-21T07:08:36.204Z,13.00
2022-11-21T07:13:54.761Z,12.77
2022-11-21T07:16:22.328Z,14.57
2022-11-21T07:18:49.914Z,14.95
2022-11-21T07:21:17.651Z,13.50
2022-11-21T07:23:45.279Z,13.23
2022-11-21T07:26:13.200Z,14.90
2022-11-21T07:28:40.931Z,13.10
2022-11-21T07:31:13.897Z,13.85
2022-11-21T07:33:43.236Z,15.68
2022-11-21T07:36:11.364Z,14.38
2022-11-21T07:38:39.173Z,13.90
2022-11-21T07:41:06.908Z,13.45
2022-11-21T07:43:34.574Z,13.38
2022-11-21T07:46:02.168Z,14.45
2022-11-21T07:48:31.130Z,13.85
2022-11-21T07:50:58.639Z,13.75
2022-11-21T07:53:26.353Z,14.30
2022-11-21T07:55:53.987Z,14.23
2022-11-21T07:58:21.546Z,12.38
2022-11-21T08:00:49.208Z,13.40
2022-11-21T08:03:16.795Z,12.75
2022-11-21T08:05:46.037Z,12.75
2022-11-21T08:08:14.709Z,12.35
2022-11-21T08:10:44.025Z,11.85
2022-11-21T08:13:11.716Z,11.88
2022-11-21T08:15:39.422Z,12.82
2022-11-21T08:18:10.929Z,12.57
2022-11-21T08:20:38.868Z,10.77
2022-11-21T08:23:08.206Z,13.43
2022-11-21T08:25:38.312Z,12.10
2022-11-21T08:28:07.089Z,14.27
2022-11-21T08:30:35.439Z,13.43
2022-11-21T08:33:03.604Z,14.65
2022-11-21T08:35:31.439Z,12.80
2022-11-21T08:37:59.475Z,13.40
2022-11-21T08:40:30.554Z,12.48
2022-11-21T08:42:58.771Z,13.30
2022-11-21T08:45:26.773Z,11.90
2022-11-21T08:47:54.375Z,12.73
2022-11-21T08:50:22.858Z,11.27
2022-11-21T08:52:50.596Z,11.00
2022-11-21T08:55:18.327Z,10.63
2022-11-21T08:57:47.169Z,10.77
2022-11-21T09:00:15.816Z,10.93
2022-11-21T09:02:43.768Z,11.27
2022-11-21T09:05:11.464Z,10.05
2022-11-21T09:07:38.986Z,10.65
2022-11-21T09:10:08.368Z,9.82
2022-11-21T09:12:35.926Z,11.00
2022-11-21T09:15:23.270Z,11.18
2022-11-21T09:18:07.934Z,11.07
2022-11-21T09:20:41.135Z,11.05
2022-11-21T09:23:11.018Z,11.52
2022-11-21T09:25:38.694Z,10.70
2022-11-21T09:28:07.714Z,11.18
2022-11-21T09:30:37.155Z,11.43
2022-11-21T09:33:06.509Z,10.70
2022-11-21T09:35:34.199Z,11.45
2022-11-21T09:38:01.763Z,12.07
2022-11-21T09:40:31.307Z,12.60
2022-11-21T09:43:07.635Z,11.90
2022-11-21T09:45:42.834Z,12.02
2022-11-21T09:48:13.926Z,13.48
2022-11-21T09:50:48.218Z,12.27
2022-11-21T09:53:23.685Z,11.60
2022-11-21T09:55:53.845Z,12.80
2022-11-21T09:58:30.711Z,12.05
2022-11-21T10:00:59.775Z,11.98
2022-11-21T10:03:30.767Z,12.38
2022-11-21T10:06:02.199Z,11.60
2022-11-21T10:08:40.424Z,11.30
2022-11-21T10:11:19.986Z,11.18
2022-11-21T10:13:58.698Z,10.70
2022-11-21T10:16:42.286Z,11.05
2022-11-21T10:19:26.930Z,11.20
2022-11-21T10:22:14.513Z,11.07
2022-11-21T10:24:49.719Z,11.07
2022-11-21T10:27:22.347Z,11.15
2022-11-21T10:29:54.988Z,11.02
2022-11-21T10:32:28.106Z,11.43
2022-11-21T10:34:59.620Z,10.65
2022-11-21T10:37:36.104Z,11.48
2022-11-21T10:40:14.817Z,12.30
2022-11-21T10:42:49.813Z,11.35
2022-11-21T10:45:16.761Z,11.45
2022-11-21T10:47:47.155Z,11.63
2022-11-21T10:50:39.085Z,11.95
2022-11-21T10:53:34.427Z,10.93
2022-11-21T10:56:05.393Z,11.05
2022-11-21T10:58:41.477Z,12.73
2022-11-21T11:01:23.891Z,11.20
2022-11-21T11:04:27.832Z,12.15
2022-11-21T11:06:56.996Z,12.73
2022-11-21T11:09:28.190Z,11.93
2022-11-21T11:12:24.916Z,11.95
2022-11-21T11:14:53.968Z,11.65
2022-11-21T11:17:30.450Z,11.85
2022-11-21T11:20:07.111Z,11.45
2022-11-21T11:22:34.818Z,11.38
2022-11-21T11:25:05.171Z,11.65
2022-11-21T11:27:32.964Z,11.20
2022-11-21T11:30:07.637Z,11.52
2022-11-21T11:32:40.621Z,11.02
2022-11-21T11:35:22.978Z,8.98
2022-11-21T11:38:00.960Z,10.13
2022-11-21T11:40:32.751Z,9.88
2022-11-21T11:43:32.478Z,9.73
2022-11-21T11:46:47.592Z,8.85
2022-11-21T11:49:21.310Z,8.10
2022-11-21T11:51:54.421Z,7.93
2022-11-21T11:54:27.361Z,8.13
2022-11-21T11:56:55.099Z,7.70
2022-11-21T11:59:29.618Z,7.20
2022-11-21T12:02:04.423Z,7.20
2022-11-21T12:04:45.296Z,6.80
2022-11-21T12:10:17.483Z,6.80
2022-11-21T12:12:49.505Z,6.18
2022-11-21T12:15:38.643Z,7.43
2022-11-21T12:18:16.947Z,7.43
2022-11-21T12:20:55.494Z,6.80
2022-11-21T12:23:27.640Z,8.30
2022-11-21T12:26:05.996Z,7.00
2022-11-21T12:28:45.416Z,5.68
2022-11-21T12:31:18.740Z,6.10
2022-11-21T12:33:53.034Z,6.07
2022-11-21T12:36:32.943Z,6.32
2022-11-21T12:39:34.524Z,4.78
2022-11-21T12:42:28.591Z,4.80
2022-11-21T12:45:10.152Z,5.53
2022-11-21T12:48:20.292Z,5.45
2022-11-21T12:51:14.415Z,5.13
2022-11-21T12:54:07.755Z,5.18
2022-11-21T12:56:45.430Z,5.75
2022-11-21T12:59:16.065Z,5.18
2022-11-21T13:01:53.149Z,5.45
2022-11-21T13:04:26.222Z,4.30
2022-11-21T13:06:56.604Z,4.70
2022-11-21T13:09:27.466Z,3.85
2022-11-21T13:12:04.725Z,4.00
2022-11-21T13:14:41.786Z,4.18
2022-11-21T13:17:24.246Z,3.72
2022-11-21T13:19:57.260Z,4.18
2022-11-21T13:22:50.599Z,4.15
2022-11-21T13:25:47.392Z,3.97
2022-11-21T13:28:53.221Z,4.05
2022-11-21T13:31:32.637Z,3.80
2022-11-21T13:34:03.355Z,4.03
2022-11-21T13:36:42.947Z,3.88
2022-11-21T13:39:36.035Z,4.03
2022-11-21T13:42:29.336Z,4.18
2022-11-21T13:44:57.526Z,5.30
2022-11-21T13:47:56.660Z,5.05
2022-11-21T13:50:46.794Z,5.05
2022-11-21T13:53:30.506Z,5.97
2022-11-21T13:56:01.031Z,5.28
2022-11-21T13:58:45.178Z,5.47
2022-11-21T14:01:41.163Z,5.45
2022-11-21T14:04:49.032Z,6.47
2022-11-21T14:07:25.737Z,4.80
2022-11-21T14:09:55.086Z,5.32
2022-11-21T14:12:33.083Z,6.07
2022-11-21T14:15:23.902Z,6.30
2022-11-21T14:17:52.688Z,6.82
2022-11-21T14:20:24.305Z,5.93
2022-11-21T14:22:57.690Z,6.82
2022-11-21T14:25:32.888Z,6.78
2022-11-21T14:28:01.018Z,6.85
2022-11-21T14:30:31.384Z,6.65
2022-11-21T14:33:22.199Z,6.57
2022-11-21T14:35:53.172Z,5.40
2022-11-21T14:38:22.444Z,6.93
2022-11-21T14:40:50.523Z,5.53
2022-11-21T14:43:33.230Z,5.78
2022-11-21T14:46:01.072Z,5.60
2022-11-21T14:48:29.647Z,6.70
2022-11-21T14:51:01.800Z,6.57
2022-11-21T14:53:29.718Z,6.20
2022-11-21T14:56:01.423Z,6.00
2022-11-21T14:58:29.628Z,6.57
2022-11-21T15:01:04.861Z,6.95
2022-11-21T15:03:32.562Z,5.28
2022-11-21T15:06:06.211Z,6.28
2022-11-21T15:10:05.374Z,6.38
2022-11-21T15:11:25.900Z,5.88
2022-11-21T15:14:15.012Z,6.80
2022-11-21T15:16:43.943Z,5.97
2022-11-21T15:19:12.009Z,5.88
2022-11-21T15:21:46.703Z,6.50
2022-11-21T15:24:19.424Z,6.70
2022-11-21T15:26:47.359Z,6.80
2022-11-21T15:29:21.243Z,6.55
2022-11-21T15:32:07.003Z,6.13
2022-11-21T15:34:48.036Z,5.75
2022-11-21T15:37:19.213Z,5.95
2022-11-21T15:39:49.875Z,5.45
2022-11-21T15:42:36.343Z,5.97
2022-11-21T15:45:21.522Z,6.80
2022-11-21T15:47:50.263Z,6.55
2022-11-21T15:50:18.462Z,6.88
2022-11-21T15:52:48.875Z,6.68
2022-11-21T15:55:20.054Z,6.53
2022-11-21T15:57:48.120Z,6.18
2022-11-21T16:00:17.194Z,7.18
2022-11-21T16:02:45.117Z,7.10
2022-11-21T16:05:13.997Z,6.45
2022-11-21T16:07:41.788Z,6.72
2022-11-21T16:10:19.956Z,5.47
2022-11-21T16:12:50.563Z,6.53
2022-11-21T16:15:18.079Z,5.82
2022-11-21T16:17:47.603Z,5.65
2022-11-21T16:20:15.791Z,5.80
2022-11-21T16:22:47.645Z,6.03
2022-11-21T16:25:17.187Z,5.60
2022-11-21T16:27:45.011Z,6.22
2022-11-21T16:30:13.246Z,7.03
2022-11-21T16:32:40.914Z,6.40
2022-11-21T16:35:09.292Z,6.07
2022-11-21T16:37:36.934Z,7.07
2022-11-21T16:40:05.175Z,6.65
2022-11-21T16:42:34.256Z,5.82
2022-11-21T16:45:01.922Z,6.35
2022-11-21T16:47:29.515Z,5.68
2022-11-21T16:49:57.241Z,5.95
2022-11-21T16:52:25.692Z,7.35
2022-11-21T16:54:53.320Z,6.72
2022-11-21T16:57:20.903Z,7.05
2022-11-21T16:59:49.989Z,6.65
2022-11-21T17:02:17.706Z,6.53
2022-11-21T17:04:45.413Z,7.28
2022-11-21T17:07:13.080Z,6.45
2022-11-21T17:09:40.757Z,5.82
2022-11-21T17:12:09.008Z,7.28
2022-11-21T17:14:36.648Z,6.53
2022-11-21T17:17:05.665Z,6.32
2022-11-21T17:19:33.386Z,5.82
2022-11-21T17:22:01.153Z,6.65
2022-11-21T17:24:29.006Z,7.40
2022-11-21T17:27:00.468Z,6.97
2022-11-21T17:29:28.277Z,6.75
2022-11-21T17:31:56.093Z,7.18
2022-11-21T17:34:29.740Z,7.20
2022-11-21T17:37:00.403Z,7.07
2022-11-21T17:39:29.843Z,7.20
2022-11-21T17:41:59.317Z,7.68
2022-11-21T17:44:27.362Z,6.75
2022-11-21T17:46:55.387Z,6.95
2022-11-21T17:49:23.183Z,7.22
2022-11-21T17:51:56.469Z,6.55
2022-11-21T17:54:24.771Z,6.93
2022-11-21T17:56:56.607Z,7.72
2022-11-21T17:59:24.809Z,7.90
2022-11-21T18:01:52.681Z,8.88
2022-11-21T18:04:24.407Z,9.48
2022-11-21T18:06:53.391Z,8.35
2022-11-21T18:09:20.939Z,9.48
2022-11-21T18:11:48.603Z,8.98
2022-11-21T18:14:16.337Z,9.52
2022-11-21T18:16:50.696Z,9.88
2022-11-21T18:19:20.962Z,9.45
2022-11-21T18:21:48.742Z,10.07
2022-11-21T18:24:17.716Z,9.18
2022-11-21T18:26:47.724Z,10.73
2022-11-21T18:32:06.118Z,11.50
2022-11-21T18:34:33.808Z,11.35
2022-11-21T18:37:01.558Z,12.13
2022-11-21T18:39:30.734Z,11.90
2022-11-21T18:41:58.544Z,12.27
2022-11-21T18:44:26.129Z,13.07
2022-11-21T18:46:53.764Z,13.50
2022-11-21T18:49:21.346Z,13.70
2022-11-21T18:51:49.103Z,13.60
2022-11-21T18:54:16.769Z,13.02
2022-11-21T18:56:46.985Z,13.05
2022-11-21T18:59:15.066Z,13.30
2022-11-21T19:01:43.258Z,13.07
2022-11-21T19:04:11.097Z,13.00
2022-11-21T19:06:39.056Z,14.32
2022-11-21T19:09:08.115Z,14.75
2022-11-21T19:11:35.802Z,14.30
2022-11-21T19:14:04.936Z,14.27
2022-11-21T19:16:34.404Z,15.73
2022-11-21T19:21:53.385Z,17.20
2022-11-21T19:24:20.972Z,15.90
2022-11-21T19:26:50.343Z,15.05
2022-11-21T19:29:20.006Z,15.55
2022-11-21T19:31:47.943Z,17.38
2022-11-21T19:34:16.458Z,18.50
2022-11-21T19:36:44.702Z,15.90
2022-11-21T19:39:12.905Z,14.52
2022-11-21T19:41:41.498Z,14.38
2022-11-21T19:44:09.305Z,17.50
2022-11-21T19:46:39.402Z,17.42
2022-11-21T19:49:07.978Z,16.88
2022-11-21T19:51:37.543Z,16.90
2022-11-21T19:54:06.202Z,16.67
2022-11-21T19:56:34.010Z,14.50
2022-11-21T19:59:01.927Z,15.13
2022-11-21T20:01:31.014Z,14.93
2022-11-21T20:04:01.867Z,14.43
2022-11-21T20:06:32.310Z,14.13
2022-11-21T20:09:02.055Z,13.23
2022-11-21T20:11:32.062Z,14.73
2022-11-21T20:14:00.130Z,11.80
2022-11-21T20:16:29.416Z,12.57
2022-11-21T20:19:01.143Z,11.35
2022-11-21T20:21:29.564Z,11.27
2022-11-21T20:23:57.552Z,10.10
2022-11-21T20:26:26.401Z,10.82
2022-11-21T20:28:54.613Z,12.05
2022-11-21T20:31:24.697Z,11.55
2022-11-21T20:33:54.064Z,11.13
2022-11-21T20:36:24.531Z,11.75
2022-11-21T20:38:53.913Z,11.90
2022-11-21T20:41:23.010Z,11.15
2022-11-21T20:44:44.365Z,10.43
2022-11-21T20:46:41.818Z,10.77
2022-11-21T20:49:09.755Z,11.57
2022-11-21T20:54:28.787Z,10.07
2022-11-21T20:56:56.573Z,12.00
2022-11-21T20:59:24.520Z,11.13
2022-11-21T21:01:52.338Z,9.88
2022-11-21T21:04:20.219Z,10.20
2022-11-21T21:07:09.166Z,11.25
2022-11-21T21:09:37.111Z,10.98
2022-11-21T21:12:05.836Z,11.48
2022-11-21T21:14:33.673Z,9.18
2022-11-21T21:17:01.450Z,10.68
2022-11-21T21:19:29.380Z,9.75
2022-11-21T21:21:57.445Z,9.68
2022-11-21T21:24:27.747Z,11.77
2022-11-21T21:26:55.375Z,10.90
2022-11-21T21:29:23.211Z,11.25
2022-11-21T21:31:52.556Z,11.10
2022-11-21T21:34:21.852Z,10.93
2022-11-21T21:36:49.679Z,11.57
2022-11-21T21:39:17.329Z,11.85
2022-11-21T21:41:47.498Z,11.95
2022-11-21T21:44:16.151Z,11.98
2022-11-21T21:46:44.068Z,11.45
2022-11-21T21:49:12.034Z,11.13
2022-11-21T21:51:48.789Z,12.00
2022-11-21T21:54:18.409Z,10.98
2022-11-21T21:56:48.407Z,11.85
2022-11-21T21:59:18.954Z,11.90
2022-11-21T22:01:50.199Z,12.50
2022-11-21T22:04:17.898Z,12.57
2022-11-21T22:06:45.533Z,13.90
2022-11-21T22:09:15.823Z,15.07
2022-11-21T22:11:49.036Z,12.57
2022-11-21T22:14:19.678Z,12.13
2022-11-21T22:16:47.445Z,12.80
2022-11-21T22:19:26.411Z,13.40
2022-11-21T22:22:00.017Z,13.00
2022-11-21T22:24:28.034Z,13.63
2022-11-21T22:26:57.150Z,12.38
2022-11-21T22:29:25.119Z,11.65
2022-11-21T22:31:53.139Z,11.95
2022-11-21T22:34:23.662Z,11.70
2022-11-21T22:36:51.395Z,12.23
2022-11-21T22:39:20.099Z,12.30
2022-11-21T22:41:47.971Z,11.93
2022-11-21T22:44:17.273Z,12.27
2022-11-21T22:46:45.001Z,11.38
2022-11-21T22:49:12.735Z,12.35
2022-11-21T22:51:40.538Z,11.68
2022-11-21T22:54:08.369Z,12.52
2022-11-21T22:56:36.171Z,11.85
2022-11-21T22:59:03.892Z,12.15
2022-11-21T23:01:33.611Z,11.63
2022-11-21T23:04:01.431Z,12.07
2022-11-21T23:06:29.151Z,11.98
2022-11-21T23:08:58.079Z,12.88
2022-11-21T23:11:27.803Z,11.88
2022-11-21T23:13:57.334Z,12.80
2022-11-21T23:16:25.665Z,12.98
2022-11-21T23:18:56.626Z,11.50
2022-11-21T23:21:24.883Z,12.65
2022-11-21T23:23:52.852Z,11.93
2022-11-21T23:26:20.980Z,12.20
2022-11-21T23:28:48.719Z,11.68
2022-11-21T23:31:16.457Z,12.35
2022-11-21T23:33:44.371Z,12.25
2022-11-21T23:36:13.546Z,11.90
2022-11-21T23:38:41.246Z,10.60
2022-11-21T23:41:09.026Z,11.40
2022-11-21T23:43:36.930Z,12.60
2022-11-21T23:46:04.545Z,12.00
2022-11-21T23:48:32.335Z,11.20
2022-11-21T23:50:59.990Z,12.73
2022-11-21T23:53:29.294Z,11.55
2022-11-21T23:55:56.931Z,11.50
2022-11-21T23:58:24.477Z,12.15
